Time;durP1;ratioP1;P1;durP2;ratioP2;P2;SDS_P1;SDS_P2;PMS_P1;PMS_P2;Temp;Humidity;BMP_temperature;BMP_pressure;BME280_temperature;BME280_humidity;BME280_pressure;Samples;Min_cycle;Max_cycle;Signal;HPM_P1;HPM_P2
2024/01/17 00:04:24;;;;;;;124.65;116.30;;;-2.00;99.90;;;;;;12366414;28;20051;-35
2024/01/17 00:10:26;;;;;;;124.22;116.20;;;-2.00;99.90;;;;;;12377258;28;20516;-35
2024/01/17 00:16:28;;;;;;;123.35;115.30;;;-2.00;99.90;;;;;;12362693;28;20061;-35
2024/01/17 00:22:30;;;;;;;124.15;115.75;;;-2.00;99.90;;;;;;12363575;28;20054;-35
2024/01/17 00:28:32;;;;;;;124.15;115.75;;;-2.00;99.90;;;;;;12356337;28;20532;-35
2024/01/17 00:34:34;;;;;;;126.60;118.40;;;-2.00;99.90;;;;;;12362682;28;20046;-34
2024/01/17 00:40:41;;;;;;;127.70;119.40;;;-2.10;99.90;;;;;;12355001;28;20047;-35
2024/01/17 00:46:42;;;;;;;123.78;115.97;;;-2.10;99.90;;;;;;12416260;28;20054;-35
2024/01/17 00:52:44;;;;;;;127.68;119.60;;;-2.00;99.90;;;;;;12353986;28;20074;-35
2024/01/17 00:58:46;;;;;;;126.78;118.75;;;-2.00;99.90;;;;;;12350516;28;20551;-35
2024/01/17 01:04:48;;;;;;;123.93;115.95;;;-2.10;99.90;;;;;;12366382;28;20052;-35
2024/01/17 01:10:51;;;;;;;122.47;114.90;;;-2.10;99.90;;;;;;12380695;28;20050;-35
2024/01/17 01:16:53;;;;;;;122.13;114.90;;;-2.10;99.90;;;;;;12363955;28;20058;-35
2024/01/17 01:22:54;;;;;;;122.38;115.07;;;-2.10;99.90;;;;;;12354816;28;20062;-35
2024/01/17 01:28:56;;;;;;;121.90;114.43;;;-2.10;99.90;;;;;;12347553;28;20717;-35
2024/01/17 01:34:58;;;;;;;120.47;113.22;;;-2.20;99.90;;;;;;12338982;28;20075;-35
2024/01/17 01:41:01;;;;;;;117.20;110.32;;;-2.20;99.90;;;;;;12355798;28;20487;-35
2024/01/17 01:47:03;;;;;;;115.05;108.05;;;-2.20;99.90;;;;;;12401350;28;20422;-35
2024/01/17 01:53:05;;;;;;;119.25;111.82;;;-2.30;99.90;;;;;;12352696;28;20486;-35
2024/01/17 01:59:10;;;;;;;117.78;111.07;;;-2.30;99.90;;;;;;12348687;28;20055;-35
2024/01/17 02:05:12;;;;;;;115.93;109.10;;;-2.30;99.90;;;;;;12362246;28;20062;-35
2024/01/17 02:11:15;;;;;;;119.60;112.70;;;-2.30;99.90;;;;;;12361891;28;20051;-34
2024/01/17 02:17:17;;;;;;;118.82;111.82;;;-2.40;99.90;;;;;;12382648;28;20193;-35
2024/01/17 02:23:29;;;;;;;120.50;113.38;;;-2.40;99.90;;;;;;12387714;28;20048;-35
2024/01/17 02:29:32;;;;;;;118.07;111.18;;;-2.50;99.90;;;;;;12401431;28;20050;-35
2024/01/17 02:35:36;;;;;;;115.05;108.40;;;-2.60;99.90;;;;;;12351017;28;20103;-35
2024/01/17 02:41:38;;;;;;;113.43;107.28;;;-2.60;99.90;;;;;;12363579;28;20046;-35
2024/01/17 02:47:40;;;;;;;112.35;105.95;;;-2.70;99.90;;;;;;12351393;28;20050;-35
2024/01/17 02:53:42;;;;;;;113.15;106.65;;;-2.70;99.90;;;;;;12346193;28;20058;-35
2024/01/17 02:59:44;;;;;;;109.82;103.57;;;-2.80;99.90;;;;;;12380610;28;20528;-35
2024/01/17 03:05:46;;;;;;;103.30;97.60;;;-2.80;99.90;;;;;;12383228;28;20050;-35
2024/01/17 03:11:48;;;;;;;104.00;98.28;;;-2.80;99.90;;;;;;12378715;28;20050;-35
2024/01/17 03:17:50;;;;;;;105.38;99.25;;;-2.80;99.90;;;;;;12380895;28;20451;-35
2024/01/17 03:23:52;;;;;;;103.85;98.20;;;-2.80;99.90;;;;;;12379575;28;20043;-35
2024/01/17 03:29:54;;;;;;;99.05;93.38;;;-2.90;99.90;;;;;;12407483;28;20062;-35
2024/01/17 03:35:56;;;;;;;100.60;95.00;;;-2.90;99.90;;;;;;12382868;28;20046;-35
2024/01/17 03:41:58;;;;;;;101.43;95.88;;;-2.90;99.90;;;;;;12395138;28;20053;-35
2024/01/17 03:48:00;;;;;;;98.03;92.55;;;-2.90;99.90;;;;;;12361756;28;20059;-35
2024/01/17 03:54:02;;;;;;;96.53;91.13;;;-2.90;99.90;;;;;;12417740;28;20704;-35
2024/01/17 04:00:06;;;;;;;98.13;92.80;;;-2.80;99.90;;;;;;12452588;28;20521;-35
2024/01/17 04:06:08;;;;;;;95.47;89.65;;;-2.80;99.90;;;;;;12359196;28;20527;-36
2024/01/17 04:12:10;;;;;;;89.85;84.95;;;-2.70;99.90;;;;;;12428086;28;20062;-35
2024/01/17 04:18:12;;;;;;;93.32;87.78;;;-2.70;99.90;;;;;;12414510;28;20055;-34
2024/01/17 04:24:14;;;;;;;92.07;86.88;;;-2.70;99.90;;;;;;12394814;28;20059;-35
2024/01/17 04:30:16;;;;;;;95.45;90.28;;;-2.70;99.90;;;;;;12386417;28;20051;-35
2024/01/17 04:36:19;;;;;;;91.10;86.20;;;-2.70;99.90;;;;;;12369529;28;20043;-35
2024/01/17 04:42:21;;;;;;;94.05;88.80;;;-2.70;99.90;;;;;;12353054;28;20518;-34
2024/01/17 04:48:23;;;;;;;91.20;86.05;;;-2.70;99.90;;;;;;12359516;28;20078;-34
2024/01/17 04:54:26;;;;;;;90.03;84.95;;;-2.60;99.90;;;;;;12365518;28;20529;-35
2024/01/17 05:00:28;;;;;;;89.95;84.82;;;-2.60;99.90;;;;;;12392372;28;20181;-35
2024/01/17 05:06:31;;;;;;;86.65;81.63;;;-2.60;99.90;;;;;;12369201;28;20046;-35
2024/01/17 05:12:33;;;;;;;84.10;79.50;;;-2.50;99.90;;;;;;12376050;28;20396;-35
2024/01/17 05:18:35;;;;;;;84.50;79.80;;;-2.50;99.90;;;;;;12357615;28;20093;-35
2024/01/17 05:24:37;;;;;;;84.57;79.65;;;-2.50;99.90;;;;;;12348310;28;20042;-35
2024/01/17 05:30:39;;;;;;;79.57;74.88;;;-2.60;99.90;;;;;;12371953;28;20137;-35
2024/01/17 05:36:43;;;;;;;78.32;73.88;;;-2.50;99.90;;;;;;12350199;28;20051;-35
2024/01/17 05:42:45;;;;;;;81.90;77.33;;;-2.50;99.90;;;;;;12341881;28;20059;-35
2024/01/17 05:48:47;;;;;;;79.20;74.80;;;-2.50;99.90;;;;;;12374081;28;20051;-35
2024/01/17 05:54:50;;;;;;;77.82;73.43;;;-2.50;99.90;;;;;;12371211;28;20050;-35
2024/01/17 06:00:51;;;;;;;74.80;70.30;;;-2.50;99.90;;;;;;12379033;28;20057;-35
2024/01/17 06:06:53;;;;;;;75.45;71.25;;;-2.50;99.90;;;;;;12379008;28;20471;-35
2024/01/17 06:12:55;;;;;;;69.72;65.65;;;-2.50;99.90;;;;;;12355508;28;20051;-35
2024/01/17 06:19:00;;;;;;;75.63;71.63;;;-2.40;99.90;;;;;;12346086;28;20173;-35
2024/01/17 06:25:04;;;;;;;73.28;69.15;;;-2.40;99.90;;;;;;12361221;28;20137;-35
2024/01/17 06:31:07;;;;;;;71.63;67.85;;;-2.40;99.90;;;;;;12364899;28;20054;-36
2024/01/17 06:37:09;;;;;;;71.72;67.63;;;-2.40;99.90;;;;;;12367001;28;20046;-35
2024/01/17 06:43:11;;;;;;;76.78;72.78;;;-2.40;99.90;;;;;;12342195;28;20092;-35
2024/01/17 06:49:13;;;;;;;78.28;73.75;;;-2.50;99.90;;;;;;12365837;28;20050;-34
2024/01/17 06:55:15;;;;;;;79.63;75.43;;;-2.60;99.90;;;;;;12358368;28;20058;-35
2024/01/17 07:01:19;;;;;;;76.80;72.65;;;-2.70;99.90;;;;;;12386702;28;20142;-35
2024/01/17 07:07:21;;;;;;;72.85;68.93;;;-3.00;99.90;;;;;;12422907;28;20197;-34
2024/01/17 07:13:23;;;;;;;67.90;64.20;;;-3.20;99.90;;;;;;12357042;28;20054;-35
2024/01/17 07:19:25;;;;;;;69.93;66.05;;;-3.20;99.90;;;;;;12363088;28;20059;-35
2024/01/17 07:25:27;;;;;;;69.93;65.65;;;-3.30;99.90;;;;;;12381751;28;20042;-35
2024/01/17 07:31:28;;;;;;;66.18;62.45;;;-3.30;99.90;;;;;;12370541;28;20042;-35
2024/01/17 07:37:31;;;;;;;65.45;61.70;;;-3.30;99.90;;;;;;12370285;28;20085;-35
2024/01/17 07:43:34;;;;;;;69.60;65.68;;;-3.30;99.90;;;;;;12362857;28;20518;-35
2024/01/17 07:49:37;;;;;;;68.65;64.65;;;-3.20;99.90;;;;;;12351498;28;20071;-35
2024/01/17 07:55:39;;;;;;;70.93;66.78;;;-3.20;99.90;;;;;;12351080;28;20062;-34
2024/01/17 08:01:41;;;;;;;66.40;62.70;;;-3.20;99.90;;;;;;12362871;28;20065;-35
2024/01/17 08:07:43;;;;;;;68.13;63.65;;;-3.10;99.90;;;;;;12395171;28;20086;-35
2024/01/17 08:13:45;;;;;;;68.35;64.07;;;-3.10;99.90;;;;;;12362636;28;20074;-35
2024/01/17 08:19:47;;;;;;;69.10;65.15;;;-3.00;99.90;;;;;;12356718;28;20066;-35
2024/01/17 08:25:49;;;;;;;69.90;65.63;;;-3.00;99.90;;;;;;12352907;28;20086;-35
2024/01/17 08:31:51;;;;;;;66.68;62.35;;;-2.90;99.90;;;;;;12373827;28;20079;-35
2024/01/17 08:37:53;;;;;;;67.93;63.72;;;-2.80;99.90;;;;;;12361052;28;20129;-35
2024/01/17 08:43:55;;;;;;;67.03;63.10;;;-2.70;99.90;;;;;;12353659;28;20761;-35
2024/01/17 08:50:00;;;;;;;68.93;64.50;;;-2.70;99.90;;;;;;12354561;28;20050;-35
2024/01/17 08:56:05;;;;;;;69.90;65.47;;;-2.60;99.90;;;;;;12372547;28;20092;-35
2024/01/17 09:02:07;;;;;;;;;;;-2.60;99.90;;;;;;12373229;28;20049;-35
2024/01/17 09:08:09;;;;;;;69.20;65.00;;;-2.60;99.90;;;;;;12365950;28;19933;-35
2024/01/17 09:14:11;;;;;;;71.45;67.28;;;-2.50;99.90;;;;;;12356113;28;20055;-34
2024/01/17 09:20:16;;;;;;;73.57;69.10;;;-2.40;99.90;;;;;;12358914;28;20070;-35
2024/01/17 09:26:18;;;;;;;73.10;68.80;;;-2.40;99.90;;;;;;12362557;28;20509;-34
2024/01/17 09:32:20;;;;;;;68.97;64.75;;;-2.30;99.90;;;;;;12379435;28;20046;-35
2024/01/17 09:38:24;;;;;;;78.72;73.85;;;-2.10;99.90;;;;;;12373920;28;20045;-35
2024/01/17 09:44:27;;;;;;;67.20;63.03;;;-2.10;99.90;;;;;;12381663;28;20043;-35
2024/01/17 09:50:29;;;;;;;73.57;69.30;;;-2.00;99.90;;;;;;12416069;28;20105;-35
2024/01/17 09:56:33;;;;;;;73.95;69.70;;;-1.90;99.90;;;;;;12376457;28;20533;-35
2024/01/17 10:02:38;;;;;;;73.05;68.85;;;-1.90;99.90;;;;;;12384305;28;20595;-34
2024/01/17 10:08:40;;;;;;;;;;;-1.80;99.90;;;;;;12415704;28;20047;-35
2024/01/17 10:14:42;;;;;;;67.70;63.58;;;-1.80;99.90;;;;;;12356743;28;20033;-35
2024/01/17 10:20:43;;;;;;;65.90;61.83;;;-1.70;99.90;;;;;;12365955;28;20061;-35
2024/01/17 10:26:46;;;;;;;68.65;64.25;;;-1.70;99.90;;;;;;12401684;28;20054;-35
2024/01/17 10:32:48;;;;;;;69.28;65.28;;;-1.60;99.90;;;;;;12364448;28;20120;-35
2024/01/17 10:38:50;;;;;;;68.72;64.53;;;-1.50;99.90;;;;;;12366897;28;20055;-35
2024/01/17 10:44:56;;;;;;;59.67;55.80;;;-1.50;99.90;;;;;;12357007;28;20309;-35
2024/01/17 10:51:04;;;;;;;58.55;54.80;;;-1.40;99.90;;;;;;12356070;28;20495;-35
2024/01/17 10:57:09;;;;;;;54.40;50.97;;;-1.40;99.90;;;;;;12351971;28;20042;-35
2024/01/17 11:03:20;;;;;;;44.67;41.60;;;-1.30;99.90;;;;;;12385306;28;20050;-35
2024/01/17 11:09:26;;;;;;;42.35;39.50;;;-1.20;99.90;;;;;;12419831;28;20999;-35
2024/01/17 11:15:29;;;;;;;27.40;25.48;;;-1.10;99.90;;;;;;12372630;28;20091;-35
2024/01/17 11:21:32;;;;;;;28.77;26.08;;;-0.70;99.90;;;;;;12360722;28;20061;-36
2024/01/17 11:27:38;;;;;;;42.25;39.20;;;-0.60;99.90;;;;;;12419050;28;20050;-35
2024/01/17 11:33:43;;;;;;;50.97;47.80;;;-0.80;99.90;;;;;;12367513;28;20047;-36
2024/01/17 11:39:46;;;;;;;60.92;56.88;;;-0.80;99.90;;;;;;12353425;28;20131;-35
2024/01/17 11:45:50;;;;;;;59.95;56.35;;;-0.80;99.90;;;;;;12338232;28;20483;-35
2024/01/17 11:51:52;;;;;;;49.17;46.30;;;-0.80;99.90;;;;;;12343665;28;20066;-35
2024/01/17 11:57:54;;;;;;;51.63;48.40;;;-0.70;99.90;;;;;;12355467;28;20054;-35
2024/01/17 12:03:56;;;;;;;44.83;42.03;;;-0.70;99.90;;;;;;12373241;28;20520;-36
2024/01/17 12:09:57;;;;;;;42.42;39.70;;;-0.70;99.90;;;;;;12371063;28;20043;-36
2024/01/17 12:16:00;;;;;;;48.35;45.42;;;-0.50;99.90;;;;;;12344981;28;20103;-35
2024/01/17 12:22:03;;;;;;;60.95;56.90;;;0.00;99.90;;;;;;12381348;28;20423;-35
2024/01/17 12:28:05;;;;;;;65.68;61.85;;;0.10;99.90;;;;;;12381382;28;20047;-36
2024/01/17 12:34:07;;;;;;;66.10;62.10;;;0.00;99.90;;;;;;12380477;28;20163;-36
2024/01/17 12:40:10;;;;;;;69.65;65.35;;;-0.30;99.90;;;;;;12358484;28;20058;-36
2024/01/17 12:46:13;;;;;;;67.57;63.38;;;-0.20;99.90;;;;;;12342732;28;20141;-36
2024/01/17 12:52:18;;;;;;;66.88;62.65;;;0.00;99.90;;;;;;12355449;28;20051;-36
2024/01/17 12:58:20;;;;;;;64.82;60.97;;;0.20;99.90;;;;;;12347043;28;20502;-35
2024/01/17 13:04:22;;;;;;;61.25;57.55;;;0.10;99.90;;;;;;12363097;28;20417;-35
2024/01/17 13:10:24;;;;;;;72.75;67.90;;;-0.20;99.90;;;;;;12377340;28;20411;-35
2024/01/17 13:16:31;;;;;;;72.82;68.20;;;-0.30;99.90;;;;;;12344831;28;20187;-35
2024/01/17 13:22:41;;;;;;;70.30;66.07;;;-0.30;99.90;;;;;;12614955;27;20102;-34
2024/01/17 13:28:43;;;;;;;70.88;66.22;;;-0.20;99.90;;;;;;12609140;28;20495;-35
2024/01/17 13:34:46;;;;;;;75.13;70.32;;;-0.30;99.90;;;;;;12601991;28;20048;-35
2024/01/17 13:40:48;;;;;;;76.97;72.15;;;-0.30;99.90;;;;;;12614726;28;20068;-35
2024/01/17 13:46:51;;;;;;;72.75;68.40;;;-0.40;99.90;;;;;;12592407;28;20072;-35
2024/01/17 13:53:08;;;;;;;68.47;64.18;;;-0.50;99.90;;;;;;12595503;28;20109;-35
2024/01/17 13:59:11;;;;;;;70.45;66.10;;;-0.40;99.90;;;;;;12620085;28;20048;-35
2024/01/17 14:05:13;;;;;;;72.75;68.32;;;-0.40;99.90;;;;;;12600961;28;20068;-35
2024/01/17 14:11:15;;;;;;;70.80;66.45;;;-0.40;99.90;;;;;;12595066;28;20130;-35
2024/01/17 14:17:17;;;;;;;78.28;73.38;;;-0.50;99.90;;;;;;12587282;28;20083;-35
2024/01/17 14:23:19;;;;;;;75.50;70.60;;;-0.60;99.90;;;;;;12602583;28;20066;-35
2024/01/17 14:29:20;;;;;;;74.80;70.30;;;-0.50;99.90;;;;;;12599269;28;20086;-35
2024/01/17 14:35:23;;;;;;;82.72;77.82;;;-0.60;99.90;;;;;;12559207;28;20127;-35
2024/01/17 14:41:25;;;;;;;70.15;66.05;;;-0.60;99.90;;;;;;12576217;28;20086;-35
2024/01/17 14:47:29;;;;;;;75.32;70.82;;;-0.70;99.90;;;;;;12560479;28;20052;-34
2024/01/17 14:53:31;;;;;;;76.65;72.00;;;-0.70;99.90;;;;;;12551411;28;20052;-35
2024/01/17 14:59:33;;;;;;;78.72;73.80;;;-0.70;99.90;;;;;;12572921;28;20044;-35
2024/01/17 15:05:35;;;;;;;81.88;76.38;;;-0.80;99.90;;;;;;12559516;28;20044;-34
2024/01/17 15:11:40;;;;;;;86.25;80.75;;;-0.70;99.90;;;;;;12577776;28;20052;-35
2024/01/17 15:17:42;;;;;;;94.43;88.43;;;-0.80;99.90;;;;;;12565084;28;20060;-35
2024/01/17 15:23:44;;;;;;;97.25;90.57;;;-0.80;99.90;;;;;;12567893;28;20090;-35
2024/01/17 15:29:46;;;;;;;98.93;92.47;;;-0.80;99.90;;;;;;12538420;28;20041;-35
2024/01/17 15:35:48;;;;;;;89.68;83.95;;;-0.90;99.90;;;;;;12567971;28;20091;-35
2024/01/17 15:41:50;;;;;;;94.72;88.82;;;-0.90;99.90;;;;;;12566519;28;20044;-35
2024/01/17 15:47:52;;;;;;;100.00;93.40;;;-1.00;99.90;;;;;;12548581;28;20065;-34
2024/01/17 15:53:54;;;;;;;94.88;88.57;;;-1.00;99.90;;;;;;12570312;28;20048;-35
2024/01/17 15:59:56;;;;;;;101.57;94.97;;;-1.00;99.90;;;;;;12557154;28;20079;-35
2024/01/17 16:06:00;;;;;;;86.45;81.18;;;-1.00;99.90;;;;;;12552079;28;20076;-35
2024/01/17 16:12:03;;;;;;;91.35;85.75;;;-1.00;99.90;;;;;;12548347;28;20486;-35
2024/01/17 16:18:05;;;;;;;97.25;91.15;;;-1.00;99.90;;;;;;12534185;28;20525;-36
2024/01/17 16:24:08;;;;;;;94.45;88.20;;;-1.00;99.90;;;;;;12547588;28;20144;-34
2024/01/17 16:30:11;;;;;;;98.30;92.20;;;-1.00;99.90;;;;;;12564447;28;20081;-34
2024/01/17 16:36:13;;;;;;;89.90;84.43;;;-1.10;99.90;;;;;;12569451;28;20055;-35
2024/01/17 16:42:15;;;;;;;88.90;83.22;;;-1.10;99.90;;;;;;12549770;28;20103;-35
2024/01/17 16:48:17;;;;;;;100.03;93.63;;;-1.10;99.90;;;;;;12530117;28;20053;-35
2024/01/17 16:54:19;;;;;;;89.47;83.88;;;-1.10;99.90;;;;;;12544864;28;20159;-35
2024/01/17 17:00:21;;;;;;;82.25;76.97;;;-1.00;99.90;;;;;;12565885;28;20493;-35
2024/01/17 17:06:23;;;;;;;85.95;80.30;;;-1.00;99.90;;;;;;12554651;28;20566;-35
2024/01/17 17:12:25;;;;;;;86.50;80.60;;;-1.00;99.90;;;;;;12561204;28;20059;-34
2024/01/17 17:18:27;;;;;;;86.93;80.85;;;-1.00;99.90;;;;;;12571516;28;20052;-35
2024/01/17 17:24:29;;;;;;;94.30;88.10;;;-1.00;99.90;;;;;;12546563;28;20048;-35
2024/01/17 17:30:31;;;;;;;95.75;89.25;;;-1.00;99.90;;;;;;12587399;28;20067;-35
2024/01/17 17:36:33;;;;;;;91.80;85.90;;;-1.10;99.90;;;;;;12557114;28;20077;-35
2024/01/17 17:42:35;;;;;;;92.90;86.93;;;-1.10;99.90;;;;;;12552884;28;20077;-35
2024/01/17 17:48:37;;;;;;;94.15;87.40;;;-1.10;99.90;;;;;;12547669;28;20053;-35
2024/01/17 17:54:39;;;;;;;92.80;86.70;;;-1.10;99.90;;;;;;12573477;28;20508;-35
2024/01/17 18:00:44;;;;;;;95.47;88.82;;;-1.10;99.90;;;;;;12560243;28;20087;-35
2024/01/17 18:06:46;;;;;;;97.93;91.20;;;-1.10;99.90;;;;;;12544093;28;20048;-35
2024/01/17 18:12:49;;;;;;;99.65;93.28;;;-1.10;99.90;;;;;;12567389;28;20045;-35
2024/01/17 18:18:56;;;;;;;96.65;90.05;;;-1.10;99.90;;;;;;12556725;28;20045;-35
2024/01/17 18:24:58;;;;;;;101.40;94.55;;;-1.10;99.90;;;;;;12562061;28;20056;-35
2024/01/17 18:31:00;;;;;;;104.07;97.07;;;-1.10;99.90;;;;;;12568233;28;20064;-35
2024/01/17 18:37:04;;;;;;;105.38;98.25;;;-1.10;99.90;;;;;;12569318;28;20044;-35
2024/01/17 18:43:05;;;;;;;106.72;99.53;;;-1.10;99.90;;;;;;12571525;28;20071;-34
2024/01/17 18:49:10;;;;;;;105.82;98.57;;;-1.00;99.90;;;;;;12554186;28;20199;-34
2024/01/17 18:55:13;;;;;;;102.95;96.00;;;-1.00;99.90;;;;;;12559015;28;20417;-35
2024/01/17 19:01:15;;;;;;;103.70;96.38;;;-1.10;99.90;;;;;;12573959;28;20044;-33
2024/01/17 19:07:17;;;;;;;106.07;98.93;;;-1.10;99.90;;;;;;12553914;28;20064;-35
2024/01/17 19:13:19;;;;;;;107.55;100.38;;;-1.10;99.90;;;;;;12578347;28;20095;-35
2024/01/17 19:19:21;;;;;;;107.18;99.65;;;-1.20;99.90;;;;;;12543320;28;20055;-35
2024/01/17 19:25:24;;;;;;;106.20;98.55;;;-1.20;99.90;;;;;;12528581;28;20058;-34
2024/01/17 19:31:26;;;;;;;100.80;94.00;;;-1.20;99.90;;;;;;12571803;28;20413;-35
2024/01/17 19:37:28;;;;;;;99.32;91.40;;;-1.10;99.90;;;;;;12572397;28;20186;-35
2024/01/17 19:43:30;;;;;;;96.55;90.07;;;-1.10;99.90;;;;;;12567615;28;20060;-35
2024/01/17 19:49:33;;;;;;;92.32;86.20;;;-1.10;99.90;;;;;;12557963;28;20101;-35
2024/01/17 19:55:35;;;;;;;92.17;85.97;;;-1.10;99.90;;;;;;12550079;28;20053;-35
2024/01/17 20:01:37;;;;;;;94.25;87.88;;;-1.10;99.90;;;;;;12572357;28;20052;-35
2024/01/17 20:07:39;;;;;;;90.60;84.40;;;-1.20;99.90;;;;;;12568196;28;20063;-35
2024/01/17 20:13:45;;;;;;;86.47;80.47;;;-1.20;99.90;;;;;;12574526;28;20397;-35
2024/01/17 20:19:47;;;;;;;88.38;82.57;;;-1.20;99.90;;;;;;12561038;28;20088;-35
2024/01/17 20:25:49;;;;;;;84.97;79.07;;;-1.20;99.90;;;;;;12543555;28;20053;-35
2024/01/17 20:31:51;;;;;;;89.85;83.75;;;-1.20;99.90;;;;;;12558585;28;20058;-35
2024/01/17 20:37:53;;;;;;;87.82;81.82;;;-1.30;99.90;;;;;;12540263;28;20416;-35
2024/01/17 20:43:55;;;;;;;86.63;80.82;;;-1.30;99.90;;;;;;12551347;28;20080;-34
2024/01/17 20:49:56;;;;;;;85.60;79.82;;;-1.30;99.90;;;;;;12536841;28;20427;-35
2024/01/17 20:56:00;;;;;;;87.38;81.25;;;-1.40;99.90;;;;;;12552270;28;20044;-35
2024/01/17 21:02:02;;;;;;;91.63;84.95;;;-1.50;99.90;;;;;;12545971;28;20044;-35
2024/01/17 21:08:04;;;;;;;91.85;85.35;;;-1.50;99.90;;;;;;12567483;28;20527;-36
2024/01/17 21:14:07;;;;;;;96.68;89.88;;;-1.60;99.90;;;;;;12576219;28;20049;-35
2024/01/17 21:20:10;;;;;;;94.63;87.85;;;-1.60;99.90;;;;;;12576588;28;20049;-35
2024/01/17 21:26:19;;;;;;;97.68;90.78;;;-1.60;99.90;;;;;;12554405;28;20106;-35
2024/01/17 21:32:22;;;;;;;97.88;89.95;;;-1.60;99.90;;;;;;12562888;28;20049;-35
2024/01/17 21:38:24;;;;;;;100.07;93.32;;;-1.70;99.90;;;;;;12553480;28;20089;-35
2024/01/17 21:44:26;;;;;;;102.63;95.25;;;-1.70;99.90;;;;;;12564831;28;20063;-35
2024/01/17 21:50:28;;;;;;;97.45;90.15;;;-1.80;99.90;;;;;;12574911;28;20067;-35
2024/01/17 21:56:33;;;;;;;100.88;93.82;;;-1.80;99.90;;;;;;12553153;28;20477;-35
2024/01/17 22:02:35;;;;;;;103.85;96.13;;;-1.90;99.90;;;;;;12573801;28;20044;-35
2024/01/17 22:08:36;;;;;;;106.07;98.53;;;-1.80;99.90;;;;;;12549924;28;20100;-35
2024/01/17 22:14:54;;;;;;;98.80;92.03;;;-2.00;99.90;;;;;;12591279;28;20048;-35
2024/01/17 22:20:56;;;;;;;99.93;93.07;;;-1.90;99.90;;;;;;12579673;28;20566;-35
2024/01/17 22:26:58;;;;;;;88.85;82.65;;;-1.80;99.90;;;;;;12558374;28;20059;-35
2024/01/17 22:33:00;;;;;;;87.72;81.60;;;-1.60;99.90;;;;;;12574102;28;20056;-36
2024/01/17 22:39:02;;;;;;;88.53;82.20;;;-1.50;99.90;;;;;;12556046;28;20417;-35
2024/01/17 22:45:06;;;;;;;84.32;78.80;;;-1.40;99.90;;;;;;12554994;28;20045;-35
2024/01/17 22:51:08;;;;;;;96.20;89.30;;;-1.40;99.90;;;;;;12570733;28;20154;-35
2024/01/17 22:57:10;;;;;;;95.68;89.13;;;-1.40;99.90;;;;;;12570201;28;20185;-35
2024/01/17 23:03:12;;;;;;;90.45;84.25;;;-1.40;99.90;;;;;;12575401;28;20056;-36
2024/01/17 23:09:14;;;;;;;89.50;83.50;;;-1.30;99.90;;;;;;12570237;28;20098;-35
2024/01/17 23:15:16;;;;;;;91.20;84.60;;;-1.30;99.90;;;;;;12560944;28;20048;-35
2024/01/17 23:21:18;;;;;;;94.30;87.70;;;-1.40;99.90;;;;;;12561357;28;20197;-35
2024/01/17 23:27:20;;;;;;;89.45;83.25;;;-1.40;99.90;;;;;;12558599;28;20049;-36
2024/01/17 23:33:22;;;;;;;90.53;84.13;;;-1.30;99.90;;;;;;12563334;28;20048;-35
2024/01/17 23:39:24;;;;;;;87.47;80.90;;;-1.40;99.90;;;;;;12564678;28;20041;-36
2024/01/17 23:45:26;;;;;;;83.20;77.60;;;-1.40;99.90;;;;;;12546161;28;20064;-35
2024/01/17 23:51:28;;;;;;;80.13;74.93;;;-1.40;99.90;;;;;;12550652;28;20076;-35
2024/01/17 23:57:30;;;;;;;80.45;75.13;;;-1.30;99.90;;;;;;12562761;28;20048;-35
